createdAt,value
2023-03-05T00:02:20.619Z,6.63
2023-03-05T00:05:23.023Z,6.72
2023-03-05T00:08:25.369Z,6.79
2023-03-05T00:11:30.244Z,6.66
2023-03-05T00:14:32.634Z,6.66
2023-03-05T00:17:35.356Z,6.61
2023-03-05T00:20:37.709Z,6.35
2023-03-05T00:23:40.036Z,6.30
2023-03-05T00:26:42.475Z,6.13
2023-03-05T00:29:44.833Z,6.29
2023-03-05T00:32:47.196Z,6.19
2023-03-05T00:35:49.520Z,6.26
2023-03-05T00:38:52.549Z,6.24
2023-03-05T00:41:55.054Z,6.08
2023-03-05T00:44:57.750Z,6.09
2023-03-05T00:48:01.218Z,5.99
2023-03-05T00:51:03.922Z,6.00
2023-03-05T00:54:06.486Z,6.23
2023-03-05T00:57:08.816Z,5.91
2023-03-05T01:00:13.025Z,5.81
2023-03-05T01:03:15.527Z,6.04
2023-03-05T01:06:18.914Z,6.19
2023-03-05T01:09:21.936Z,6.05
2023-03-05T01:12:24.440Z,6.06
2023-03-05T01:15:26.905Z,6.10
2023-03-05T01:18:29.533Z,6.03
2023-03-05T01:21:31.980Z,6.34
2023-03-05T01:24:34.218Z,6.12
2023-03-05T01:27:36.512Z,6.23
2023-03-05T01:30:38.838Z,6.11
2023-03-05T01:33:41.180Z,6.07
2023-03-05T01:36:43.554Z,5.88
2023-03-05T01:39:45.841Z,6.00
2023-03-05T01:42:49.828Z,6.03
2023-03-05T01:46:23.530Z,6.37
2023-03-05T01:49:32.446Z,6.37
2023-03-05T01:52:37.107Z,6.42
2023-03-05T01:55:39.579Z,6.40
2023-03-05T01:58:41.943Z,6.41
2023-03-05T02:01:48.039Z,6.59
2023-03-05T02:04:54.442Z,6.71
2023-03-05T02:08:01.734Z,6.38
2023-03-05T02:11:04.220Z,6.60
2023-03-05T02:14:09.024Z,6.44
2023-03-05T02:17:12.626Z,6.38
2023-03-05T02:20:18.211Z,6.31
2023-03-05T02:23:21.326Z,6.45
2023-03-05T02:26:23.709Z,6.34
2023-03-05T02:29:26.640Z,6.02
2023-03-05T02:32:29.022Z,6.01
2023-03-05T02:35:31.676Z,6.25
2023-03-05T02:38:34.437Z,6.21
2023-03-05T02:41:36.899Z,6.27
2023-03-05T02:44:42.624Z,6.40
2023-03-05T02:47:45.054Z,6.39
2023-03-05T02:50:48.318Z,6.52
2023-03-05T02:53:51.464Z,6.60
2023-03-05T02:56:53.958Z,6.42
2023-03-05T02:59:57.630Z,6.27
2023-03-05T03:03:00.064Z,6.29
2023-03-05T03:06:02.982Z,6.29
2023-03-05T03:09:05.425Z,6.20
2023-03-05T03:12:07.880Z,6.19
2023-03-05T03:15:13.842Z,6.28
2023-03-05T03:18:16.231Z,5.94
2023-03-05T03:21:24.053Z,6.12
2023-03-05T03:24:26.554Z,6.08
2023-03-05T03:27:28.949Z,6.14
2023-03-05T03:30:31.295Z,6.05
2023-03-05T03:33:33.677Z,5.88
2023-03-05T03:36:38.563Z,6.12
2023-03-05T03:39:40.846Z,6.12
2023-03-05T03:42:43.125Z,6.21
2023-03-05T03:45:45.722Z,6.08
2023-03-05T03:48:51.414Z,6.11
2023-03-05T03:51:54.696Z,5.92
2023-03-05T03:55:01.713Z,5.82
2023-03-05T03:58:04.234Z,5.78
2023-03-05T04:01:06.514Z,5.97
2023-03-05T04:04:14.045Z,5.86
2023-03-05T04:07:16.753Z,5.98
2023-03-05T04:10:19.040Z,6.01
2023-03-05T04:13:21.274Z,6.36
2023-03-05T04:16:23.872Z,6.09
2023-03-05T04:19:26.238Z,6.25
2023-03-05T04:22:28.481Z,6.29
2023-03-05T04:25:30.744Z,6.36
2023-03-05T04:28:33.351Z,6.21
2023-03-05T04:31:35.725Z,6.36
2023-03-05T04:34:38.486Z,6.37
2023-03-05T04:37:40.744Z,6.08
2023-03-05T04:40:43.131Z,5.98
2023-03-05T04:43:45.444Z,6.15
2023-03-05T04:46:47.856Z,6.04
2023-03-05T04:49:50.232Z,5.87
2023-03-05T04:52:52.675Z,5.79
2023-03-05T04:55:55.803Z,5.68
2023-03-05T04:58:59.022Z,5.86
2023-03-05T05:02:01.311Z,6.02
2023-03-05T05:05:03.843Z,6.35
2023-03-05T05:08:06.262Z,6.55
2023-03-05T05:11:11.588Z,6.36
2023-03-05T05:14:14.112Z,6.33
2023-03-05T05:17:16.445Z,6.37
2023-03-05T05:20:19.214Z,6.48
2023-03-05T05:23:21.785Z,6.59
2023-03-05T05:26:24.233Z,6.34
2023-03-05T05:29:26.928Z,6.28
2023-03-05T05:32:29.343Z,6.34
2023-03-05T05:35:31.751Z,6.33
2023-03-05T05:38:34.957Z,6.44
2023-03-05T05:41:37.298Z,6.41
2023-03-05T05:44:39.798Z,6.32
2023-03-05T05:47:42.116Z,6.29
2023-03-05T05:50:44.611Z,6.20
2023-03-05T05:53:47.161Z,6.17
2023-03-05T05:56:49.981Z,6.27
2023-03-05T05:59:52.334Z,6.53
2023-03-05T06:02:54.765Z,6.66
2023-03-05T06:05:57.143Z,6.73
2023-03-05T06:08:59.588Z,7.00
2023-03-05T06:12:02.587Z,6.90
2023-03-05T06:15:05.538Z,6.89
2023-03-05T06:18:07.978Z,6.69
2023-03-05T06:21:15.661Z,6.85
2023-03-05T06:24:19.489Z,7.00
2023-03-05T06:27:22.231Z,6.73
2023-03-05T06:30:24.638Z,6.78
2023-03-05T06:33:27.022Z,6.61
2023-03-05T06:36:30.198Z,6.55
2023-03-05T06:39:32.640Z,6.69
2023-03-05T06:42:35.420Z,6.84
2023-03-05T06:45:37.820Z,6.68
2023-03-05T06:48:40.668Z,6.89
2023-03-05T06:51:43.069Z,6.74
2023-03-05T06:54:45.583Z,6.61
2023-03-05T06:57:47.882Z,6.60
2023-03-05T07:00:50.202Z,6.60
2023-03-05T07:03:54.770Z,6.61
2023-03-05T07:06:58.537Z,6.60
2023-03-05T07:10:00.992Z,6.78
2023-03-05T07:13:03.434Z,6.88
2023-03-05T07:16:12.479Z,6.61
2023-03-05T07:19:14.847Z,6.74
2023-03-05T07:22:17.168Z,6.96
2023-03-05T07:25:21.619Z,6.86
2023-03-05T07:28:23.993Z,6.92
2023-03-05T07:31:32.032Z,6.96
2023-03-05T07:34:34.567Z,6.96
2023-03-05T07:37:37.043Z,6.68
2023-03-05T07:40:39.340Z,6.76
2023-03-05T07:43:41.696Z,6.90
2023-03-05T07:46:44.115Z,7.18
2023-03-05T07:49:46.563Z,7.31
2023-03-05T07:52:49.006Z,7.39
2023-03-05T07:55:51.300Z,7.46
2023-03-05T07:58:53.687Z,7.31
2023-03-05T08:01:56.064Z,7.22
2023-03-05T08:04:58.490Z,7.11
2023-03-05T08:08:00.857Z,7.36
2023-03-05T08:11:13.814Z,7.16
2023-03-05T08:14:16.179Z,7.41
2023-03-05T08:17:20.771Z,7.18
2023-03-05T08:20:23.183Z,7.22
2023-03-05T08:23:26.096Z,7.38
2023-03-05T08:26:30.124Z,7.55
2023-03-05T08:29:32.529Z,7.70
2023-03-05T08:32:35.113Z,7.91
2023-03-05T08:35:37.653Z,7.95
2023-03-05T08:38:40.087Z,8.34
2023-03-05T08:41:42.435Z,7.98
2023-03-05T08:44:44.854Z,7.92
2023-03-05T08:47:47.165Z,7.90
2023-03-05T08:50:50.019Z,8.08
2023-03-05T08:53:54.639Z,7.72
2023-03-05T08:56:56.957Z,7.70
2023-03-05T08:59:59.377Z,7.72
2023-03-05T09:03:01.746Z,7.92
2023-03-05T09:06:08.575Z,8.15
2023-03-05T09:09:10.989Z,8.11
2023-03-05T09:12:13.654Z,7.94
2023-03-05T09:15:16.062Z,8.02
2023-03-05T09:18:18.369Z,7.90
2023-03-05T09:21:20.888Z,8.00
2023-03-05T09:24:23.200Z,7.93
2023-03-05T09:27:25.559Z,8.00
2023-03-05T09:30:27.989Z,7.98
2023-03-05T09:33:31.893Z,8.32
2023-03-05T09:36:34.211Z,8.34
2023-03-05T09:39:39.905Z,8.36
2023-03-05T09:42:58.066Z,8.62
2023-03-05T09:46:30.731Z,8.70
2023-03-05T09:49:51.224Z,8.78
2023-03-05T09:53:18.573Z,8.71
2023-03-05T09:56:27.347Z,8.69
2023-03-05T09:59:36.077Z,8.68
2023-03-05T10:02:47.775Z,8.19
2023-03-05T10:06:00.969Z,8.36
2023-03-05T10:09:39.954Z,8.33
2023-03-05T10:12:46.739Z,8.56
2023-03-05T10:16:27.732Z,8.76
2023-03-05T10:20:08.634Z,9.01
2023-03-05T10:23:25.841Z,8.74
2023-03-05T10:26:39.395Z,8.63
2023-03-05T10:29:46.266Z,8.66
2023-03-05T10:32:56.392Z,8.58
2023-03-05T10:36:22.218Z,8.71
2023-03-05T10:39:50.891Z,8.75
2023-03-05T10:43:13.441Z,8.48
2023-03-05T10:46:17.933Z,8.81
2023-03-05T10:49:23.026Z,8.81
2023-03-05T10:52:31.494Z,9.04
2023-03-05T10:55:33.926Z,8.21
2023-03-05T10:58:36.266Z,8.61
2023-03-05T11:01:38.599Z,8.87
2023-03-05T11:04:40.999Z,9.01
2023-03-05T11:07:43.569Z,8.97
2023-03-05T11:10:45.999Z,9.07
2023-03-05T11:13:48.257Z,8.98
2023-03-05T11:16:51.787Z,8.54
2023-03-05T11:19:55.461Z,8.89
2023-03-05T11:23:15.319Z,8.82
2023-03-05T11:26:22.800Z,8.95
2023-03-05T11:29:28.610Z,8.91
2023-03-05T11:32:31.719Z,9.21
2023-03-05T11:35:37.576Z,9.05
2023-03-05T11:38:52.261Z,9.03
2023-03-05T11:41:59.575Z,9.31
2023-03-05T11:45:03.179Z,9.03
2023-03-05T11:48:09.721Z,9.19
2023-03-05T11:51:42.315Z,9.07
2023-03-05T11:55:10.922Z,9.27
2023-03-05T11:58:28.003Z,9.17
2023-03-05T12:01:33.476Z,9.38
2023-03-05T12:04:36.485Z,10.18
2023-03-05T12:07:43.249Z,11.05
2023-03-05T12:10:45.571Z,10.95
2023-03-05T12:14:14.008Z,11.17
2023-03-05T12:17:51.175Z,11.41
2023-03-05T12:21:01.072Z,11.22
2023-03-05T12:24:27.869Z,10.79
2023-03-05T12:27:36.912Z,10.98
2023-03-05T12:30:42.411Z,10.95
2023-03-05T12:33:44.759Z,10.58
2023-03-05T12:36:47.088Z,10.27
2023-03-05T12:40:12.751Z,10.72
2023-03-05T12:43:28.746Z,11.02
2023-03-05T12:46:38.429Z,11.10
2023-03-05T12:49:45.367Z,11.34
2023-03-05T12:52:47.795Z,11.35
2023-03-05T12:55:59.120Z,11.80
2023-03-05T12:59:04.322Z,11.20
2023-03-05T13:02:21.032Z,11.00
2023-03-05T13:05:27.549Z,10.73
2023-03-05T13:08:32.313Z,10.38
2023-03-05T13:11:37.853Z,9.61
2023-03-05T13:14:46.116Z,9.69
2023-03-05T13:17:57.014Z,9.63
2023-03-05T13:21:06.524Z,9.85
2023-03-05T13:24:19.749Z,9.77
2023-03-05T13:27:30.186Z,9.46
2023-03-05T13:30:34.652Z,9.54
2023-03-05T13:33:37.119Z,9.66
2023-03-05T13:36:40.057Z,9.76
2023-03-05T13:40:14.687Z,9.74
2023-03-05T13:43:20.851Z,9.30
2023-03-05T13:46:38.736Z,9.50
2023-03-05T13:49:41.089Z,9.76
2023-03-05T13:52:43.408Z,9.97
2023-03-05T13:55:47.160Z,9.97
2023-03-05T13:58:58.612Z,10.01
2023-03-05T14:02:04.671Z,9.60
2023-03-05T14:05:14.774Z,9.19
2023-03-05T14:08:25.653Z,9.09
2023-03-05T14:11:28.007Z,9.23
2023-03-05T14:14:31.756Z,9.08
2023-03-05T14:17:40.504Z,9.10
2023-03-05T14:21:04.749Z,9.14
2023-03-05T14:24:14.466Z,9.32
2023-03-05T14:27:17.828Z,9.04
2023-03-05T14:30:21.332Z,8.97
2023-03-05T14:33:26.012Z,8.95
2023-03-05T14:36:29.656Z,8.97
2023-03-05T14:39:50.042Z,8.66
2023-03-05T14:43:04.099Z,8.87
2023-03-05T14:46:06.450Z,8.80
2023-03-05T14:49:08.848Z,9.03
2023-03-05T14:52:15.499Z,8.98
2023-03-05T14:55:20.237Z,8.71
2023-03-05T14:58:28.234Z,8.76
2023-03-05T15:01:30.628Z,9.00
2023-03-05T15:04:32.992Z,8.94
2023-03-05T15:07:35.378Z,9.10
2023-03-05T15:10:37.679Z,9.10
2023-03-05T15:13:39.974Z,8.92
2023-03-05T15:16:43.855Z,8.63
2023-03-05T15:19:47.438Z,8.82
2023-03-05T15:22:49.759Z,8.57
2023-03-05T15:25:52.102Z,8.46
2023-03-05T15:28:54.448Z,8.47
2023-03-05T15:31:56.749Z,8.32
2023-03-05T15:34:59.414Z,8.15
2023-03-05T15:38:01.664Z,8.20
2023-03-05T15:41:03.951Z,8.01
2023-03-05T15:44:06.342Z,8.19
2023-03-05T15:47:08.615Z,8.25
2023-03-05T15:50:12.392Z,7.82
2023-03-05T15:53:18.151Z,7.88
2023-03-05T15:56:20.762Z,7.73
2023-03-05T15:59:23.118Z,7.83
2023-03-05T16:02:25.568Z,7.83
2023-03-05T16:05:28.129Z,8.15
2023-03-05T16:08:31.127Z,8.43
2023-03-05T16:11:36.582Z,8.14
2023-03-05T16:14:39.508Z,8.32
2023-03-05T16:17:44.203Z,8.03
2023-03-05T16:20:47.850Z,8.15
2023-03-05T16:23:50.236Z,8.22
2023-03-05T16:26:52.612Z,8.05
2023-03-05T16:29:54.927Z,8.04
2023-03-05T16:32:57.328Z,8.07
2023-03-05T16:36:12.150Z,7.78
2023-03-05T16:39:14.887Z,7.46
2023-03-05T16:42:17.542Z,7.62
2023-03-05T16:45:19.885Z,7.50
2023-03-05T16:48:22.317Z,7.45
2023-03-05T16:51:25.008Z,7.82
2023-03-05T16:54:27.528Z,7.49
2023-03-05T16:57:29.845Z,7.70
2023-03-05T17:00:32.392Z,7.79
2023-03-05T17:03:34.886Z,7.34
2023-03-05T17:06:37.684Z,7.28
2023-03-05T17:09:40.002Z,7.24
2023-03-05T17:12:43.719Z,7.28
2023-03-05T17:15:46.016Z,7.24
2023-03-05T17:18:48.870Z,7.38
2023-03-05T17:21:52.268Z,7.35
2023-03-05T17:24:54.690Z,7.38
2023-03-05T17:27:56.945Z,7.32
2023-03-05T17:31:01.447Z,7.43
2023-03-05T17:34:04.391Z,7.52
2023-03-05T17:37:06.899Z,7.51
2023-03-05T17:40:12.499Z,7.39
2023-03-05T17:43:14.896Z,7.35
2023-03-05T17:46:17.285Z,7.05
2023-03-05T17:49:19.923Z,6.92
2023-03-05T17:52:23.068Z,7.02
2023-03-05T17:55:25.832Z,6.94
2023-03-05T17:58:28.167Z,7.21
2023-03-05T18:01:33.144Z,7.06
2023-03-05T18:04:35.539Z,7.14
2023-03-05T18:07:38.107Z,7.01
2023-03-05T18:10:40.578Z,7.05
2023-03-05T18:13:43.114Z,6.86
2023-03-05T18:16:47.654Z,6.96
2023-03-05T18:19:50.584Z,6.99
2023-03-05T18:22:53.109Z,7.00
2023-03-05T18:25:55.399Z,6.92
2023-03-05T18:28:57.787Z,6.87
2023-03-05T18:32:00.634Z,6.54
2023-03-05T18:35:05.448Z,6.78
2023-03-05T18:38:08.224Z,6.59
2023-03-05T18:41:19.820Z,6.86
2023-03-05T18:44:22.484Z,6.86
2023-03-05T18:47:26.432Z,7.06
2023-03-05T18:50:29.635Z,7.00
2023-03-05T18:53:32.188Z,7.22
2023-03-05T18:56:35.144Z,7.24
2023-03-05T18:59:37.594Z,7.01
2023-03-05T19:02:39.907Z,6.85
2023-03-05T19:05:42.583Z,6.89
2023-03-05T19:08:45.231Z,6.76
2023-03-05T19:11:48.424Z,6.94
2023-03-05T19:14:51.078Z,6.86
2023-03-05T19:17:54.862Z,6.74
2023-03-05T19:20:57.162Z,6.81
2023-03-05T19:24:00.014Z,6.95
2023-03-05T19:27:10.211Z,6.74
2023-03-05T19:30:13.834Z,6.63
2023-03-05T19:33:16.137Z,6.49
2023-03-05T19:36:18.402Z,6.79
2023-03-05T19:39:20.690Z,6.60
2023-03-05T19:42:23.079Z,6.76
2023-03-05T19:45:25.689Z,6.79
2023-03-05T19:48:30.828Z,6.73
2023-03-05T19:51:33.593Z,6.67
2023-03-05T19:54:36.006Z,6.79
2023-03-05T19:57:38.241Z,6.73
2023-03-05T20:00:40.802Z,6.79
2023-03-05T20:03:48.533Z,6.75
2023-03-05T20:06:50.879Z,6.59
2023-03-05T20:09:55.535Z,6.60
2023-03-05T20:12:57.986Z,6.74
2023-03-05T20:16:00.437Z,6.72
2023-03-05T20:19:05.083Z,6.73
2023-03-05T20:22:07.458Z,6.46
2023-03-05T20:25:16.539Z,6.36
2023-03-05T20:28:25.766Z,6.52
2023-03-05T20:31:28.513Z,6.57
2023-03-05T20:34:31.367Z,6.54
2023-03-05T20:38:20.859Z,6.73
2023-03-05T20:41:24.059Z,6.76
2023-03-05T20:44:26.481Z,6.61
2023-03-05T20:47:46.079Z,6.26
2023-03-05T20:50:48.438Z,5.96
2023-03-05T20:53:52.123Z,6.37
2023-03-05T20:56:54.463Z,6.26
2023-03-05T20:59:57.003Z,6.19
2023-03-05T21:02:59.265Z,6.08
2023-03-05T21:06:05.804Z,6.14
2023-03-05T21:09:08.084Z,5.87
2023-03-05T21:12:10.751Z,6.05
2023-03-05T21:15:15.095Z,6.37
2023-03-05T21:18:17.578Z,6.42
2023-03-05T21:21:19.937Z,6.29
2023-03-05T21:25:00.890Z,6.30
2023-03-05T21:28:17.867Z,6.45
2023-03-05T21:31:21.998Z,6.12
2023-03-05T21:34:24.317Z,6.22
2023-03-05T21:37:26.599Z,6.06
2023-03-05T21:40:29.691Z,6.27
2023-03-05T21:43:32.193Z,6.26
2023-03-05T21:46:35.278Z,6.15
2023-03-05T21:49:37.584Z,5.99
2023-03-05T21:52:40.033Z,6.04
2023-03-05T21:56:23.855Z,6.26
2023-03-05T21:59:26.652Z,6.28
2023-03-05T22:02:29.000Z,6.15
2023-03-05T22:05:31.282Z,6.20
2023-03-05T22:08:33.604Z,6.32
2023-03-05T22:11:36.164Z,6.08
2023-03-05T22:14:38.471Z,6.18
2023-03-05T22:17:40.742Z,6.22
2023-03-05T22:20:43.610Z,6.03
2023-03-05T22:23:46.786Z,6.03
2023-03-05T22:26:49.104Z,6.01
2023-03-05T22:29:51.419Z,6.06
2023-03-05T22:32:53.734Z,6.23
2023-03-05T22:35:56.313Z,6.15
2023-03-05T22:38:58.693Z,6.18
2023-03-05T22:42:00.940Z,6.20
2023-03-05T22:45:03.423Z,6.29
2023-03-05T22:48:06.282Z,6.26
2023-03-05T22:51:09.494Z,6.16
2023-03-05T22:54:11.887Z,6.19
2023-03-05T22:57:14.163Z,6.08
2023-03-05T23:00:23.728Z,6.21
2023-03-05T23:03:26.131Z,6.01
2023-03-05T23:06:28.442Z,6.14
2023-03-05T23:09:30.854Z,5.91
2023-03-05T23:12:34.932Z,5.98
2023-03-05T23:15:39.070Z,5.98
2023-03-05T23:18:41.327Z,5.83
2023-03-05T23:21:43.585Z,6.06
2023-03-05T23:24:45.898Z,6.11
2023-03-05T23:27:49.173Z,6.13
2023-03-05T23:30:51.502Z,5.98
2023-03-05T23:33:53.802Z,6.06
2023-03-05T23:36:56.227Z,6.02
2023-03-05T23:39:58.483Z,5.95
2023-03-05T23:43:00.911Z,5.96
2023-03-05T23:46:03.305Z,6.02
2023-03-05T23:49:05.634Z,5.89
2023-03-05T23:52:08.003Z,5.77
2023-03-05T23:55:18.433Z,5.88
2023-03-05T23:58:21.349Z,5.82
